Terminal Aerodrome Forecast
Issued by NWS

Home | Current Version | Previous Version | Text Only | Print | Product List | Glossary On
Versions: 1 2 3 4 5 6 7 8 9 10 11 12 13 14 15 16 17
000
FTUS45 KRIW 022329
TAFCPR
TAF
KCPR 022329Z 0300/0324 04010KT P6SM FEW070 SCT100
     FM030800 VRB06KT P6SM SKC
     FM032200 06007KT P6SM VCTS SCT080CB=

USA.gov is the U.S. government's official web portal to all federal, state and local government web resources and services.